Time;durP1;ratioP1;P1;durP2;ratioP2;P2;SDS_P1;SDS_P2;PMS_P1;PMS_P2;Temp;Humidity;BMP_temperature;BMP_pressure;BME280_temperature;BME280_humidity;BME280_pressure;Samples;Min_cycle;Max_cycle;Signal;HPM_P1;HPM_P2
2023/08/08 00:00:41;;;;;;;1.20;1.20;;;;;;;12.82;93.23;101404.41;5034517;28;20079;-87
2023/08/08 00:03:08;;;;;;;1.50;1.40;;;;;;;12.81;92.90;101400.06;5033980;28;20088;-87
2023/08/08 00:05:33;;;;;;;;;;;;;;;12.80;93.34;101400.97;5034347;28;20026;-88
2023/08/08 00:07:59;;;;;;;2.60;2.03;;;;;;;12.78;93.37;101394.91;5034711;28;19913;-88
2023/08/08 00:10:24;;;;;;;3.17;1.77;;;;;;;12.75;93.17;101389.78;5033664;28;20049;-87
2023/08/08 00:12:50;;;;;;;2.23;1.90;;;;;;;12.78;94.79;101394.91;5034167;28;20393;-87
2023/08/08 00:15:15;;;;;;;1.93;1.73;;;;;;;12.78;94.20;101397.50;5034240;28;20084;-88
2023/08/08 00:17:40;;;;;;;2.23;1.90;;;;;;;12.71;95.56;101393.28;5034019;28;20029;-87
2023/08/08 00:20:07;;;;;;;1.93;1.70;;;;;;;12.74;94.32;101398.47;5034091;28;20525;-87
2023/08/08 00:22:32;;;;;;;3.67;1.95;;;;;;;12.77;94.95;101404.47;5034167;28;20024;-87
2023/08/08 00:24:58;;;;;;;1.80;1.70;;;;;;;12.79;95.11;101407.03;5033502;28;20680;-87
2023/08/08 00:27:23;;;;;;;2.17;1.90;;;;;;;12.77;94.62;101390.63;5033731;28;20031;-87
2023/08/08 00:29:50;;;;;;;2.07;1.60;;;;;;;12.83;94.42;101395.72;5037408;28;20025;-87
2023/08/08 00:32:15;;;;;;;1.45;1.35;;;;;;;12.85;94.33;101399.16;5036565;28;20084;-87
2023/08/08 00:34:41;;;;;;;1.70;1.40;;;;;;;12.87;94.11;101386.97;5033696;28;20018;-87
2023/08/08 00:37:09;;;;;;;2.83;2.00;;;;;;;12.87;95.51;101391.31;5034048;28;20056;-87
2023/08/08 00:39:34;;;;;;;2.40;1.80;;;;;;;12.87;95.00;101388.69;5033457;28;20425;-87
2023/08/08 00:42:03;;;;;;;1.97;1.70;;;;;;;12.89;94.82;101381.72;5033748;28;20096;-88
2023/08/08 00:44:28;;;;;;;1.83;1.70;;;;;;;12.90;94.36;101384.28;5033977;28;20037;-88
2023/08/08 00:46:54;;;;;;;2.07;1.57;;;;;;;12.86;94.86;101377.44;5035672;28;20026;-87
2023/08/08 00:49:19;;;;;;;2.25;1.50;;;;;;;12.94;94.09;101391.19;5033426;28;20116;-88
2023/08/08 00:51:46;;;;;;;1.37;1.27;;;;;;;12.95;94.21;101386.81;5033797;28;20052;-88
2023/08/08 00:54:13;;;;;;;1.17;1.17;;;;;;;12.98;94.81;101376.34;5032757;28;20486;-88
2023/08/08 00:56:38;;;;;;;1.80;1.27;;;;;;;13.01;95.09;101375.44;5049652;28;20469;-88
2023/08/08 00:59:04;;;;;;;1.40;1.30;;;;;;;13.03;95.04;101390.19;5053369;28;20088;-89
2023/08/08 01:01:29;;;;;;;1.50;1.40;;;;;;;13.03;94.47;101390.19;5052971;28;20103;-88
2023/08/08 01:03:54;;;;;;;1.20;1.10;;;;;;;13.02;94.38;101380.63;5053502;28;20071;-88
2023/08/08 01:06:36;;;;;;;1.20;0.90;;;;;;;12.97;94.26;101372.91;5053357;28;20090;-88
2023/08/08 01:09:11;;;;;;;1.00;1.00;;;;;;;13.06;94.42;101382.28;5032716;28;20534;-88
2023/08/08 01:11:37;;;;;;;1.23;1.13;;;;;;;13.06;94.44;101384.91;5033682;28;20531;-88
2023/08/08 01:14:05;;;;;;;1.67;1.40;;;;;;;13.09;94.99;101384.00;5032685;28;20029;-88
2023/08/08 01:16:30;;;;;;;2.00;1.73;;;;;;;13.09;95.92;101381.41;5033795;28;20034;-88
2023/08/08 01:18:57;;;;;;;1.40;1.30;;;;;;;13.08;94.44;101383.13;5032999;28;20113;-88
2023/08/08 01:21:24;;;;;;;1.52;1.38;;;;;;;13.12;94.58;101381.31;5032263;28;20443;-87
2023/08/08 01:23:56;;;;;;;1.98;1.63;;;;;;;13.15;94.87;101370.00;5033211;28;20018;-87
2023/08/08 01:26:23;;;;;;;4.32;2.00;;;;;;;13.11;95.46;101361.38;5033336;28;20044;-88
2023/08/08 01:28:48;;;;;;;;;;;;;;;13.15;94.81;101380.44;5033325;28;20026;-88
2023/08/08 01:31:13;;;;;;;2.37;1.77;;;;;;;13.15;95.07;101381.28;5041386;28;20404;-88
2023/08/08 01:33:39;;;;;;;2.13;1.90;;;;;;;13.15;95.35;101383.03;5053036;28;20074;-87
2023/08/08 01:36:13;;;;;;;2.10;1.77;;;;;;;13.15;95.79;101372.63;5052193;28;20048;-87
2023/08/08 01:38:45;;;;;;;1.73;1.60;;;;;;;13.15;96.30;101370.00;5053176;28;20064;-88
2023/08/08 01:41:10;;;;;;;1.50;1.40;;;;;;;13.12;96.11;101358.75;5053215;28;20067;-88
2023/08/08 01:43:38;;;;;;;1.73;1.40;;;;;;;13.16;96.33;101364.75;5052795;28;20025;-89
2023/08/08 01:46:04;;;;;;;2.72;1.65;;;;;;;13.15;97.13;101370.84;5053555;28;20095;-88
2023/08/08 01:48:29;;;;;;;1.83;1.70;;;;;;;13.17;95.59;101370.84;5055944;28;20025;-92
2023/08/08 01:50:55;;;;;;;3.30;1.80;;;;;;;13.16;95.83;101369.13;5055131;28;20547;-93
2023/08/08 01:53:20;;;;;;;1.90;1.80;;;;;;;13.15;97.60;101367.41;5057032;28;20017;-93
2023/08/08 01:55:46;;;;;;;2.10;1.90;;;;;;;13.12;97.93;101357.88;5054005;28;20024;-93
2023/08/08 01:58:11;;;;;;;2.40;1.90;;;;;;;13.09;99.17;101361.41;5053643;28;20083;-92
2023/08/08 02:00:36;;;;;;;4.10;1.90;;;;;;;12.96;100.00;101342.53;5054149;28;20032;-92
2023/08/08 02:03:02;;;;;;;3.13;1.93;;;;;;;12.97;99.75;101339.03;5054637;28;20469;-92
2023/08/08 02:05:28;;;;;;;2.60;2.10;;;;;;;12.99;100.00;101346.81;5058232;28;20104;-91
2023/08/08 02:07:57;;;;;;;2.00;1.80;;;;;;;12.98;99.25;101355.50;5057334;28;20056;-92
2023/08/08 02:10:22;;;;;;;2.20;1.80;;;;;;;12.93;100.00;101347.78;5056976;28;20025;-92
2023/08/08 02:12:47;;;;;;;2.77;1.70;;;;;;;12.87;99.46;101339.22;5057570;28;20032;-92
2023/08/08 02:15:13;;;;;;;1.87;1.70;;;;;;;12.81;99.16;101334.97;5057517;28;20115;-92
2023/08/08 02:17:44;;;;;;;1.70;1.60;;;;;;;12.85;99.33;101344.44;5057259;28;20377;-92
2023/08/08 02:20:11;;;;;;;1.33;1.33;;;;;;;12.83;99.09;101347.06;5057146;28;20056;-92
2023/08/08 02:22:37;;;;;;;3.05;1.80;;;;;;;12.79;100.00;101335.00;5057070;28;20163;-91
2023/08/08 02:25:03;;;;;;;1.97;1.77;;;;;;;12.76;99.51;101334.19;5057457;28;20052;-91
2023/08/08 02:27:28;;;;;;;2.27;1.80;;;;;;;12.73;99.74;101337.69;5057270;28;20028;-92
2023/08/08 02:29:54;;;;;;;1.63;1.53;;;;;;;12.76;99.14;101335.03;5057769;28;20025;-93
2023/08/08 02:32:19;;;;;;;2.83;2.10;;;;;;;12.76;100.00;101332.44;5057048;28;20028;-92
2023/08/08 02:34:44;;;;;;;2.43;1.90;;;;;;;12.72;100.00;101325.53;5056669;28;20056;-93
2023/08/08 02:37:10;;;;;;;2.23;1.50;;;;;;;12.73;100.00;101324.66;5057006;28;20024;-93
2023/08/08 02:39:38;;;;;;;1.57;1.47;;;;;;;12.71;100.00;101320.38;5057293;28;20372;-92
2023/08/08 02:42:12;;;;;;;2.03;1.83;;;;;;;12.64;100.00;101304.00;5056847;28;20025;-92
2023/08/08 02:44:37;;;;;;;2.58;1.80;;;;;;;12.68;100.00;101316.09;5057045;28;20032;-93
2023/08/08 02:47:33;;;;;;;2.37;2.07;;;;;;;12.78;100.00;101322.84;5056692;28;20025;-94
2023/08/08 02:49:58;;;;;;;1.65;1.55;;;;;;;12.74;100.00;101302.94;5057224;28;20056;-93
2023/08/08 02:52:23;;;;;;;1.23;1.20;;;;;;;12.80;100.00;101307.19;5056684;28;20034;-93
2023/08/08 02:54:55;;;;;;;2.10;1.67;;;;;;;12.79;100.00;101306.34;5056518;28;20068;-93
2023/08/08 02:57:20;;;;;;;2.13;1.80;;;;;;;12.69;100.00;101286.56;5052845;28;20425;-92
2023/08/08 02:59:47;;;;;;;2.23;1.80;;;;;;;12.67;100.00;101294.38;5040371;28;20022;-94
2023/08/08 03:02:24;;;;;;;2.47;1.90;;;;;;;12.65;100.00;101288.34;5036738;28;20025;-93
2023/08/08 03:04:59;;;;;;;2.97;2.17;;;;;;;12.72;100.00;101296.06;5036650;28;20060;-91
2023/08/08 03:07:25;;;;;;;1.90;1.67;;;;;;;12.77;100.00;101304.66;5018833;28;20041;-94
2023/08/08 03:09:51;;;;;;;3.20;2.00;;;;;;;12.69;100.00;101293.50;5036871;28;20017;-94
2023/08/08 03:12:17;;;;;;;2.67;2.08;;;;;;;12.77;100.00;101315.06;5035649;28;20057;-93
2023/08/08 03:15:02;;;;;;;2.10;1.90;;;;;;;12.71;100.00;101313.44;5037252;28;20072;-93
2023/08/08 03:17:33;;;;;;;1.70;1.60;;;;;;;12.63;100.00;101297.94;5035734;28;20041;-94
2023/08/08 03:19:58;;;;;;;2.45;1.80;;;;;;;12.66;100.00;101289.19;5035810;28;20377;-92
2023/08/08 03:22:25;;;;;;;2.47;1.90;;;;;;;12.73;100.00;101301.22;5036272;28;20101;-93
2023/08/08 03:24:51;;;;;;;3.10;2.20;;;;;;;12.66;100.00;101289.19;5037443;28;20049;-93
2023/08/08 03:27:19;;;;;;;2.70;1.90;;;;;;;12.77;100.00;101305.50;5036271;28;20036;-92
2023/08/08 03:29:44;;;;;;;5.63;2.70;;;;;;;12.75;100.00;101299.47;5035007;28;20021;-91
2023/08/08 03:32:14;;;;;;;5.37;2.43;;;;;;;12.77;100.00;101305.50;5035535;28;20545;-91
2023/08/08 03:34:40;;;;;;;2.90;2.10;;;;;;;12.69;100.00;101290.88;5035074;28;20549;-92
2023/08/08 03:37:06;;;;;;;3.53;2.20;;;;;;;12.71;100.00;101296.94;5035279;28;20072;-91
2023/08/08 03:39:32;;;;;;;3.25;2.10;;;;;;;12.69;100.00;101285.69;5028038;28;20097;-91
2023/08/08 03:41:57;;;;;;;5.37;2.57;;;;;;;12.67;100.00;101281.34;5035627;28;20064;-92
2023/08/08 03:44:23;;;;;;;4.37;2.43;;;;;;;12.72;100.00;101296.91;5035521;28;20035;-91
2023/08/08 03:46:49;;;;;;;2.93;2.30;;;;;;;12.71;100.00;101299.53;5035565;28;20022;-92
2023/08/08 03:49:15;;;;;;;2.72;2.30;;;;;;;12.66;100.00;101291.81;5035703;28;20156;-91
2023/08/08 03:51:40;;;;;;;2.77;2.20;;;;;;;12.76;100.00;101309.00;5035180;28;20088;-92
2023/08/08 03:54:05;;;;;;;2.00;1.80;;;;;;;12.67;100.00;101293.53;5034905;28;20041;-93
2023/08/08 03:56:31;;;;;;;2.47;2.20;;;;;;;12.73;100.00;101301.22;5035493;28;20040;-93
2023/08/08 03:58:58;;;;;;;4.63;2.53;;;;;;;12.66;100.00;101294.41;5035251;28;20079;-92
2023/08/08 04:01:23;;;;;;;2.75;2.22;;;;;;;12.61;100.00;101291.03;5035199;28;20025;-92
2023/08/08 04:03:48;;;;;;;2.87;2.03;;;;;;;12.64;100.00;101290.97;5036672;28;20045;-92
2023/08/08 04:06:14;;;;;;;2.77;2.10;;;;;;;12.64;100.00;101298.78;5034892;28;20033;-94
2023/08/08 04:08:39;;;;;;;2.77;2.00;;;;;;;12.64;100.00;101298.78;5034763;28;20022;-94
2023/08/08 04:11:04;;;;;;;2.10;1.90;;;;;;;12.62;100.00;101297.94;5034047;28;20440;-91
2023/08/08 04:13:30;;;;;;;2.20;2.00;;;;;;;12.59;100.00;101293.66;5034447;28;20028;-91
2023/08/08 04:15:55;;;;;;;2.43;1.80;;;;;;;12.57;100.00;101291.97;5034740;28;20021;-91
2023/08/08 04:18:23;;;;;;;2.27;1.80;;;;;;;12.54;100.00;101284.19;5044354;28;20029;-91
2023/08/08 04:20:48;;;;;;;3.83;2.28;;;;;;;12.55;100.00;101294.59;5054437;28;20529;-91
2023/08/08 04:23:14;;;;;;;4.80;2.50;;;;;;;12.44;100.00;101279.16;5054057;28;20064;-93
2023/08/08 04:25:42;;;;;;;2.60;2.20;;;;;;;12.41;100.00;101275.75;5054091;28;20025;-93
2023/08/08 04:28:07;;;;;;;3.15;2.00;;;;;;;12.48;100.00;101291.25;5053706;28;20100;-92
2023/08/08 04:30:33;;;;;;;5.23;2.67;;;;;;;12.36;100.00;101281.88;5053944;28;20109;-92
2023/08/08 04:32:58;;;;;;;5.17;2.50;;;;;;;12.32;100.00;101279.34;5052973;28;20063;-93
2023/08/08 04:35:33;;;;;;;4.40;2.57;;;;;;;12.41;100.00;101286.16;5053835;28;20477;-92
2023/08/08 04:37:58;;;;;;;4.15;2.55;;;;;;;12.39;100.00;101288.75;5053962;28;20477;-93
2023/08/08 04:40:43;;;;;;;5.43;2.30;;;;;;;12.45;100.00;101295.59;5053640;28;20025;-96
2023/08/08 04:43:23;;;;;;;3.88;2.40;;;;;;;12.38;100.00;101284.47;5054639;28;20021;-95
2023/08/08 04:45:51;;;;;;;3.10;2.50;;;;;;;12.37;100.00;101280.13;5052019;28;20108;-90
2023/08/08 04:48:16;;;;;;;4.72;2.40;;;;;;;12.41;100.00;101280.94;5033338;28;20025;-92
2023/08/08 04:50:42;;;;;;;3.40;2.40;;;;;;;12.44;100.00;101280.91;5033796;28;20056;-92
2023/08/08 04:53:07;;;;;;;5.40;2.67;;;;;;;12.54;100.00;101297.22;5033150;28;20040;-91
2023/08/08 04:55:32;;;;;;;6.27;2.93;;;;;;;12.48;100.00;101292.97;5034025;28;20033;-92
2023/08/08 04:57:59;;;;;;;2.67;2.37;;;;;;;12.48;100.00;101287.75;5034368;28;20029;-92
2023/08/08 05:00:30;;;;;;;4.90;2.55;;;;;;;12.44;100.00;101278.28;5033134;28;20032;-90
2023/08/08 05:02:55;;;;;;;2.85;2.20;;;;;;;12.59;100.00;101298.84;5033066;28;20030;-89
2023/08/08 05:05:21;;;;;;;3.83;2.30;;;;;;;12.58;100.00;101293.69;5032738;28;20021;-89
2023/08/08 05:07:46;;;;;;;2.87;2.20;;;;;;;12.52;100.00;101286.84;5032583;28;20022;-88
2023/08/08 05:10:11;;;;;;;2.33;1.93;;;;;;;12.61;100.00;101294.50;5032432;28;20071;-89
2023/08/08 05:12:39;;;;;;;2.83;2.23;;;;;;;12.65;100.00;101292.69;5033172;28;20052;-84
2023/08/08 05:15:05;;;;;;;2.95;2.20;;;;;;;12.63;100.00;101294.44;5044564;23;20515;-88
2023/08/08 05:17:31;;;;;;;6.30;3.03;;;;;;;12.64;100.00;101293.56;5052950;28;20021;-88
2023/08/08 05:19:58;;;;;;;6.90;3.00;;;;;;;12.61;100.00;101296.25;5052651;28;20128;-86
2023/08/08 05:22:24;;;;;;;3.45;2.65;;;;;;;12.67;100.00;101290.94;5050490;28;20095;-86
2023/08/08 05:24:50;;;;;;;4.47;2.60;;;;;;;12.73;100.00;101288.19;5052577;28;20481;-86
2023/08/08 05:27:15;;;;;;;3.23;2.20;;;;;;;12.75;100.00;101293.41;5049949;28;21921;-85
2023/08/08 05:29:41;;;;;;;3.03;2.20;;;;;;;12.72;100.00;101277.81;5052278;28;20021;-85
2023/08/08 05:32:07;;;;;;;2.90;2.10;;;;;;;12.78;100.00;101296.81;5052458;28;20112;-87
2023/08/08 05:34:33;;;;;;;2.22;2.00;;;;;;;12.82;100.00;101298.50;5051795;28;20014;-87
2023/08/08 05:36:59;;;;;;;6.15;3.00;;;;;;;12.87;100.00;101293.19;5052043;28;20032;-90
2023/08/08 05:39:24;;;;;;;5.33;2.47;;;;;;;12.83;100.00;101284.53;5050898;28;20037;-87
2023/08/08 05:41:49;;;;;;;3.50;2.40;;;;;;;12.97;100.00;101302.56;5052097;28;20091;-89
2023/08/08 05:44:16;;;;;;;2.67;2.07;;;;;;;13.02;100.00;101288.56;5055838;28;20029;-89
2023/08/08 05:46:41;;;;;;;4.78;2.60;;;;;;;13.12;100.00;101293.59;5057202;28;20104;-91
2023/08/08 05:49:06;;;;;;;6.13;3.17;;;;;;;13.16;100.00;101288.34;5056592;28;20537;-91
2023/08/08 05:51:32;;;;;;;5.53;2.80;;;;;;;13.26;100.00;101301.16;5056796;28;20029;-90
2023/08/08 05:53:58;;;;;;;6.67;3.30;;;;;;;13.32;100.00;101301.94;5056323;28;20028;-90
2023/08/08 05:56:33;;;;;;;7.77;3.70;;;;;;;13.35;100.00;101299.25;5051442;28;20036;-90
2023/08/08 05:58:59;;;;;;;5.47;2.90;;;;;;;13.41;100.00;101300.00;5056140;28;20036;-84
2023/08/08 06:01:24;;;;;;;3.10;2.53;;;;;;;13.53;100.00;101300.66;5055185;28;20025;-84
2023/08/08 06:03:49;;;;;;;3.23;2.10;;;;;;;13.61;100.00;101306.59;5055069;28;20385;-83
2023/08/08 06:06:15;;;;;;;6.77;2.80;;;;;;;13.66;100.00;101301.28;5055341;28;20025;-83
2023/08/08 06:08:40;;;;;;;6.57;2.90;;;;;;;13.70;100.00;101298.59;5055661;28;20029;-83
2023/08/08 06:11:05;;;;;;;6.27;3.47;;;;;;;13.77;100.00;101293.22;5054593;28;20420;-83
2023/08/08 06:13:30;;;;;;;4.83;2.90;;;;;;;13.88;100.00;101302.53;5055503;28;20048;-83
2023/08/08 06:15:56;;;;;;;6.30;3.30;;;;;;;13.96;100.00;101310.19;5069036;28;20433;-83
2023/08/08 06:18:24;;;;;;;5.47;3.27;;;;;;;13.99;100.00;101299.69;5074767;28;20371;-83
2023/08/08 06:20:50;;;;;;;4.45;2.80;;;;;;;14.01;100.00;101307.50;5075579;28;20024;-83
2023/08/08 06:23:15;;;;;;;4.93;2.90;;;;;;;14.11;100.00;101306.41;5075306;28;20028;-83
2023/08/08 06:25:40;;;;;;;4.27;2.57;;;;;;;14.15;100.00;101320.22;5074476;28;20031;-83
2023/08/08 06:28:06;;;;;;;2.87;2.27;;;;;;;14.13;100.00;101304.59;5075399;28;20033;-83
2023/08/08 06:30:31;;;;;;;3.00;2.10;;;;;;;14.32;100.00;101317.22;5074609;28;20025;-82
2023/08/08 06:33:00;;;;;;;3.10;2.27;;;;;;;14.40;100.00;101319.66;5074988;28;20476;-84
2023/08/08 06:35:25;;;;;;;3.53;2.42;;;;;;;14.46;100.00;101317.78;5074911;28;20067;-84
2023/08/08 06:37:50;;;;;;;3.07;2.00;;;;;;;14.55;100.00;101315.81;5074563;28;20024;-83
2023/08/08 06:40:19;;;;;;;4.63;2.20;;;;;;;14.67;100.00;101320.78;5074844;28;20036;-83
2023/08/08 06:42:44;;;;;;;5.85;2.80;;;;;;;14.67;100.00;101315.56;5075215;28;20401;-84
2023/08/08 06:45:09;;;;;;;5.43;2.70;;;;;;;14.63;100.00;101308.66;5073785;28;20016;-85
2023/08/08 06:47:35;;;;;;;5.43;3.07;;;;;;;14.80;100.00;101311.75;5075695;28;20025;-92
2023/08/08 06:50:00;;;;;;;6.33;2.90;;;;;;;15.28;100.00;101309.59;5076041;28;20025;-94
2023/08/08 06:52:27;;;;;;;4.88;2.80;;;;;;;15.56;100.00;101320.16;5081502;28;20106;-96
2023/08/08 06:54:52;;;;;;;4.70;2.77;;;;;;;16.27;100.00;101319.81;5077272;28;20025;-91
2023/08/08 06:57:17;;;;;;;8.87;3.60;;;;;;;17.80;93.93;101331.22;5077145;28;20021;-93
2023/08/08 06:59:42;;;;;;;3.63;2.57;;;;;;;18.53;93.70;101327.47;5075795;28;20087;-93
2023/08/08 07:02:08;;;;;;;4.00;2.50;;;;;;;18.42;90.77;101327.06;5075856;28;20028;-92
2023/08/08 07:04:33;;;;;;;4.13;2.40;;;;;;;19.14;90.88;101331.09;5075885;28;20059;-95
2023/08/08 07:06:58;;;;;;;2.47;2.10;;;;;;;19.74;87.41;101332.84;5076039;28;20103;-96
2023/08/08 07:09:24;;;;;;;3.30;2.17;;;;;;;20.25;86.35;101331.41;5076157;28;20048;-96
2023/08/08 07:11:49;;;;;;;2.33;2.03;;;;;;;20.65;85.19;101321.53;5075970;28;20051;-96
2023/08/08 07:14:15;;;;;;;4.93;2.60;;;;;;;20.86;78.18;101329.31;5075251;28;20099;-96
2023/08/08 07:16:40;;;;;;;4.47;2.20;;;;;;;20.66;82.64;101329.34;5095552;28;20048;-95
2023/08/08 07:19:06;;;;;;;3.37;2.03;;;;;;;20.55;82.41;101330.81;5095473;28;20406;-95
2023/08/08 07:21:31;;;;;;;2.00;1.70;;;;;;;20.35;80.36;101322.13;5095419;28;20119;-95
2023/08/08 07:23:57;;;;;;;3.33;2.20;;;;;;;20.08;78.79;101322.50;5095691;28;20134;-95
2023/08/08 07:26:23;;;;;;;3.38;2.03;;;;;;;19.80;76.89;101334.34;5095370;28;20028;-93
2023/08/08 07:28:48;;;;;;;2.40;1.97;;;;;;;19.41;81.39;101322.06;5095210;28;20426;-94
2023/08/08 07:31:13;;;;;;;2.30;1.60;;;;;;;19.02;81.73;101321.13;5095301;28;20122;-94
2023/08/08 07:33:38;;;;;;;2.23;1.60;;;;;;;18.59;82.24;101330.78;5103790;28;20020;-94
2023/08/08 07:36:09;;;;;;;1.67;1.57;;;;;;;18.27;83.06;101322.44;5095733;28;20024;-95
2023/08/08 07:38:34;;;;;;;2.10;1.70;;;;;;;18.16;86.22;101318.47;5095417;28;20105;-94
2023/08/08 07:41:00;;;;;;;3.77;1.93;;;;;;;18.03;83.53;101315.47;5094426;28;20137;-95
2023/08/08 07:43:25;;;;;;;4.63;2.40;;;;;;;17.88;83.52;101318.66;5095700;28;20027;-95
2023/08/08 07:45:50;;;;;;;2.47;2.10;;;;;;;17.80;83.01;101325.97;5095625;28;20028;-95
2023/08/08 07:48:15;;;;;;;2.10;1.80;;;;;;;17.70;85.09;101313.19;5094302;28;20024;-95
2023/08/08 07:50:41;;;;;;;2.27;1.90;;;;;;;17.75;85.17;101318.25;5094953;28;20028;-94
2023/08/08 07:53:06;;;;;;;2.90;1.70;;;;;;;17.81;83.98;101319.81;5094916;28;20020;-95
2023/08/08 07:55:32;;;;;;;2.53;1.80;;;;;;;17.75;85.52;101320.88;5094370;28;20464;-96
2023/08/08 07:57:57;;;;;;;1.90;1.67;;;;;;;17.75;86.46;101319.13;5094704;28;20023;-95
2023/08/08 08:00:23;;;;;;;1.50;1.40;;;;;;;17.81;85.36;101317.19;5094849;28;20016;-94
2023/08/08 08:02:48;;;;;;;2.57;1.50;;;;;;;17.90;86.88;101319.47;5094165;28;20020;-96
2023/08/08 08:05:13;;;;;;;2.83;2.00;;;;;;;17.97;83.92;101317.47;5094570;28;20103;-95
2023/08/08 08:07:39;;;;;;;3.97;1.90;;;;;;;17.89;82.66;101315.97;5093616;28;20099;-95
2023/08/08 08:10:08;;;;;;;2.78;2.10;;;;;;;17.80;79.18;101329.47;5093610;28;20020;-95
2023/08/08 08:12:35;;;;;;;4.68;1.95;;;;;;;17.65;80.65;101319.53;5095866;28;20442;-95
2023/08/08 08:15:01;;;;;;;3.45;2.13;;;;;;;17.55;80.45;101313.78;5095608;28;20043;-94
2023/08/08 08:17:27;;;;;;;2.45;1.98;;;;;;;17.51;82.74;101318.25;5094636;28;20043;-95
2023/08/08 08:19:53;;;;;;;4.47;2.40;;;;;;;17.50;81.81;101307.84;5095230;28;20434;-95
2023/08/08 08:22:19;;;;;;;2.40;1.58;;;;;;;17.55;83.75;101308.53;5094467;28;20028;-94
2023/08/08 08:24:45;;;;;;;2.17;1.67;;;;;;;17.66;81.73;101313.38;5094160;28;20535;-94
2023/08/08 08:27:11;;;;;;;;;;;;;;;17.82;83.49;101319.75;5095263;28;20016;-89
2023/08/08 08:29:36;;;;;;;2.00;1.80;;;;;;;18.04;82.66;101324.22;5093349;28;19920;-86
2023/08/08 08:32:01;;;;;;;3.03;2.00;;;;;;;18.07;80.48;101321.44;5092898;28;20558;-85
2023/08/08 08:34:27;;;;;;;2.20;1.67;;;;;;;18.02;81.81;101320.78;5093619;28;20016;-91
2023/08/08 08:36:52;;;;;;;1.97;1.70;;;;;;;18.06;81.42;101323.22;5093861;28;20028;-94
2023/08/08 08:39:24;;;;;;;2.83;1.80;;;;;;;18.02;79.87;101324.25;5082827;28;20028;-93
2023/08/08 08:41:58;;;;;;;3.63;2.03;;;;;;;17.90;77.91;101322.09;5073906;28;20033;-90
2023/08/08 08:44:25;;;;;;;5.65;2.22;;;;;;;17.71;79.90;101314.06;5073704;28;20025;-94
2023/08/08 08:46:52;;;;;;;3.33;2.08;;;;;;;17.65;79.47;101323.03;5074070;28;20503;-95
2023/08/08 08:49:20;;;;;;;2.83;1.70;;;;;;;17.70;80.23;101320.22;5074888;28;20037;-96
2023/08/08 08:51:47;;;;;;;1.92;1.73;;;;;;;17.79;79.59;101311.16;5074914;28;20056;-96
2023/08/08 08:54:29;;;;;;;2.50;1.73;;;;;;;17.86;80.23;101321.34;5074821;28;20117;-96
2023/08/08 08:56:55;;;;;;;3.60;1.77;;;;;;;17.90;80.81;101314.22;5074872;28;20469;-86
2023/08/08 08:59:20;;;;;;;2.47;1.70;;;;;;;18.05;79.99;101324.16;5072699;28;20079;-92
2023/08/08 09:01:46;;;;;;;2.13;1.50;;;;;;;18.16;78.16;101323.75;5076684;28;20043;-92
2023/08/08 09:04:15;;;;;;;3.83;1.80;;;;;;;18.10;79.28;101326.59;5073207;28;20107;-92
2023/08/08 09:06:41;;;;;;;2.80;1.83;;;;;;;17.96;79.63;101324.47;5073020;28;20082;-92
2023/08/08 09:09:07;;;;;;;1.60;1.50;;;;;;;17.81;80.73;101331.19;5086432;28;20028;-92
2023/08/08 09:11:33;;;;;;;4.60;1.92;;;;;;;17.64;78.39;101330.94;5094365;28;20043;-90
2023/08/08 09:14:00;;;;;;;4.03;1.77;;;;;;;17.45;79.24;101329.84;5093149;28;20031;-93
2023/08/08 09:16:25;;;;;;;;;;;;;;;17.36;79.29;101335.44;5093944;28;20048;-92
2023/08/08 09:18:51;;;;;;;2.33;1.63;;;;;;;17.31;79.83;101323.38;5096940;28;20348;-93
2023/08/08 09:21:18;;;;;;;1.60;1.50;;;;;;;17.32;81.59;101331.22;5097072;28;20032;-93
2023/08/08 09:23:44;;;;;;;;;;;;;;;17.37;80.86;101334.53;5100771;28;20073;-94
2023/08/08 09:26:09;;;;;;;2.97;1.70;;;;;;;17.39;80.98;101330.06;5097665;28;19912;-92
2023/08/08 09:28:35;;;;;;;4.27;1.90;;;;;;;17.40;80.27;101337.03;5097238;28;20031;-91
2023/08/08 09:31:00;;;;;;;2.50;1.53;;;;;;;17.43;77.43;101326.44;5097778;28;20020;-93
2023/08/08 09:33:29;;;;;;;2.10;1.50;;;;;;;17.51;80.85;101339.25;5097191;28;20039;-92
2023/08/08 09:35:55;;;;;;;2.88;1.95;;;;;;;17.64;80.00;101341.44;5097747;28;20024;-95
2023/08/08 09:38:20;;;;;;;1.97;1.50;;;;;;;17.69;80.43;101347.38;5097550;28;20034;-93
2023/08/08 09:40:46;;;;;;;1.80;1.70;;;;;;;17.74;80.24;101346.31;5096966;28;20136;-93
2023/08/08 09:43:11;;;;;;;1.73;1.40;;;;;;;17.82;79.93;101345.16;5097306;28;20107;-92
2023/08/08 09:45:38;;;;;;;1.43;1.23;;;;;;;17.93;81.46;101336.88;5097155;28;20714;-92
2023/08/08 09:48:06;;;;;;;3.20;1.80;;;;;;;18.06;79.09;101338.16;5096624;28;20431;-92
2023/08/08 09:50:33;;;;;;;4.05;2.20;;;;;;;18.13;77.60;101333.47;5098736;28;20020;-92
2023/08/08 09:52:58;;;;;;;2.75;1.90;;;;;;;18.25;77.19;101351.38;5097523;28;20036;-93
2023/08/08 09:55:24;;;;;;;2.87;1.70;;;;;;;18.34;75.93;101351.06;5096461;28;20447;-93
2023/08/08 09:57:52;;;;;;;2.67;1.60;;;;;;;18.45;75.30;101336.63;5097108;28;20286;-91
2023/08/08 10:00:20;;;;;;;2.17;1.48;;;;;;;18.63;76.49;101338.50;5096801;28;20024;-90
2023/08/08 10:02:46;;;;;;;1.40;1.30;;;;;;;18.91;74.98;101337.34;5095711;28;20511;-89
2023/08/08 10:05:14;;;;;;;2.28;1.42;;;;;;;19.11;74.04;101331.22;5096927;28;20046;-92
2023/08/08 10:07:43;;;;;;;3.33;2.03;;;;;;;19.19;74.13;101338.78;5096835;28;20103;-91
2023/08/08 10:10:11;;;;;;;2.15;1.55;;;;;;;19.28;74.11;101333.13;5096131;28;20081;-92
2023/08/08 10:12:38;;;;;;;3.13;1.90;;;;;;;19.25;71.72;101322.72;5096827;28;20480;-92
2023/08/08 10:15:07;;;;;;;1.70;1.60;;;;;;;19.31;71.82;101321.59;5096454;28;20044;-89
2023/08/08 10:17:40;;;;;;;2.10;1.63;;;;;;;19.18;68.85;101330.97;5096273;28;20028;-91
2023/08/08 10:20:11;;;;;;;2.67;1.73;;;;;;;18.95;68.75;101331.03;5097026;28;20020;-93
2023/08/08 10:22:38;;;;;;;1.90;1.65;;;;;;;18.84;71.26;101338.50;5096206;28;20032;-91
2023/08/08 10:25:04;;;;;;;1.65;1.42;;;;;;;18.79;71.70;101329.97;5096719;28;20028;-91
2023/08/08 10:27:35;;;;;;;2.00;1.40;;;;;;;18.78;73.09;101341.41;5097210;28;20028;-92
2023/08/08 10:30:10;;;;;;;2.38;1.45;;;;;;;18.73;70.33;101340.72;5096084;28;20023;-91
2023/08/08 10:32:57;;;;;;;1.40;1.20;;;;;;;18.56;72.24;101347.56;5096687;28;20052;-91
2023/08/08 10:35:24;;;;;;;1.52;1.27;;;;;;;18.39;68.23;101352.63;5096527;28;20028;-95
2023/08/08 10:37:57;;;;;;;1.75;1.40;;;;;;;18.20;71.27;101348.09;5096636;28;20027;-94
2023/08/08 10:40:23;;;;;;;2.05;1.63;;;;;;;18.03;68.70;101344.34;5096538;28;20058;-94
2023/08/08 10:42:49;;;;;;;2.28;1.50;;;;;;;17.94;72.36;101349.94;5096947;28;20020;-93
2023/08/08 10:45:16;;;;;;;1.90;1.60;;;;;;;18.01;72.60;101340.09;5096336;28;20069;-93
2023/08/08 10:47:42;;;;;;;1.23;1.13;;;;;;;18.09;73.09;101335.38;5096718;28;20031;-92
2023/08/08 10:50:14;;;;;;;1.92;1.58;;;;;;;18.19;71.33;101344.59;5095915;28;20047;-93
2023/08/08 10:52:54;;;;;;;3.45;1.80;;;;;;;18.26;71.91;101347.84;5096072;28;20059;-92
2023/08/08 10:55:36;;;;;;;1.33;1.23;;;;;;;18.33;71.44;101335.31;5096307;28;20093;-92
2023/08/08 10:58:10;;;;;;;2.45;1.55;;;;;;;18.45;72.71;101336.63;5095843;28;20130;-91
2023/08/08 11:00:41;;;;;;;3.17;2.10;;;;;;;18.58;72.30;101331.72;5096144;28;20032;-94
2023/08/08 11:03:08;;;;;;;4.75;2.15;;;;;;;18.75;71.09;101334.47;5096000;28;20376;-88
2023/08/08 11:05:35;;;;;;;5.38;2.03;;;;;;;18.93;72.74;101330.25;5095802;28;20086;-91
2023/08/08 11:08:02;;;;;;;2.40;1.95;;;;;;;19.13;71.77;101326.78;5095994;28;20020;-87
2023/08/08 11:10:31;;;;;;;2.03;1.70;;;;;;;19.35;70.37;101331.06;5096114;28;20551;-90
2023/08/08 11:13:03;;;;;;;1.92;1.60;;;;;;;19.58;72.23;101323.94;5098135;28;20031;-91
2023/08/08 11:15:29;;;;;;;1.80;1.63;;;;;;;19.79;72.60;101322.09;5103501;28;20051;-88
2023/08/08 11:17:57;;;;;;;2.00;1.83;;;;;;;20.00;72.19;101324.66;5095977;28;20165;-90
2023/08/08 11:20:24;;;;;;;3.83;1.80;;;;;;;20.04;68.19;101319.19;5095224;28;20387;-91
2023/08/08 11:22:56;;;;;;;2.05;1.77;;;;;;;19.96;69.06;101326.59;5095616;28;20016;-90